Arklow Spray — C6VK8 — position and weather

sailwx.info

Track history (hours):
 
Tides and Currents Weather Stations Pressure Air Temp Water Temp Dewpoint Dewpoint Depression Visibility Wind Speed Wind Dir Waves Ship Positions

Arklow Spray

Last reported at 2015-May-02 17:27 UTC. Time now 2015-May-03 13:50 UTC.
Position N 43°45' W 006°11'.

Length 90 m; draft 3 m.

Type: Cargo ship. MMSI: 309914000.

Date/timePositionNaut miles runAvg speedWind from/ knotsBaromVisibWave heightAir tempDewpointWater temp
2015-May-02 17:27N 43°45' W 006°11'1011.2
2015-May-02 16:31N 43°44' W 005°57'1111.0
2015-May-02 15:33N 43°43' W 005°42'1110.9
2015-May-02 14:32N 43°41' W 005°27'1211.4
2015-May-02 13:31N 43°40' W 005°11'153 9.5
2015-May-01 21:28N 44°37' W 001°53'2610.7
2015-May-01 19:05N 45°02' W 001°44'6010.4
2015-May-01 13:22N 46°01' W 001°32'9 4.9
2015-May-01 11:32N 46°06' W 001°21'6 6.5
2015-May-01 10:33N 46°10' W 001°13'0 0.4
2015-May-01 09:29N 46°09' W 001°13'0 0.0
2015-May-01 08:23N 46°09' W 001°13'0 0.0
2015-May-01 07:32N 46°09' W 001°13'0 0.0
2015-May-01 06:32N 46°09' W 001°13'0 0.0
2015-May-01 05:32N 46°09' W 001°13'0 0.0
2015-May-01 04:32N 46°09' W 001°13'0 0.0
2015-May-01 03:32N 46°09' W 001°13'0 0.0
2015-May-01 02:31N 46°09' W 001°13'0 0.0
2015-May-01 01:31N 46°09' W 001°13'0 0.0
2015-May-01 00:28N 46°09' W 001°13'0 0.0
2015-Apr-30 23:31N 46°09' W 001°13'0 0.0
2015-Apr-30 22:31N 46°09' W 001°13'0 0.0
2015-Apr-30 21:31N 46°09' W 001°13'0 0.0
2015-Apr-30 20:28N 46°09' W 001°13'0 0.0
2015-Apr-30 19:28N 46°09' W 001°13'0 0.0
2015-Apr-30 18:28N 46°09' W 001°13'0 0.0
2015-Apr-30 17:28N 46°09' W 001°13'0 0.0
2015-Apr-30 16:28N 46°09' W 001°13'0 0.0
2015-Apr-30 15:28N 46°09' W 001°13'0 0.0
2015-Apr-30 14:31N 46°09' W 001°13'0 0.0
2015-Apr-30 13:31N 46°09' W 001°13'0 0.0
2015-Apr-30 12:31N 46°09' W 001°13'0 0.0
2015-Apr-30 11:31N 46°09' W 001°13'0 0.0
2015-Apr-30 10:31N 46°09' W 001°13'0 0.0
2015-Apr-30 09:31N 46°09' W 001°13'0 0.0
2015-Apr-30 08:28N 46°09' W 001°13'0 0.0
2015-Apr-30 07:07N 46°09' W 001°13'0 0.0
2015-Apr-30 06:31N 46°09' W 001°13'0 0.0
2015-Apr-30 05:31N 46°09' W 001°13'0 0.0
2015-Apr-30 04:31N 46°09' W 001°13'0 0.0
2015-Apr-30 03:31N 46°09' W 001°13'0 0.0
2015-Apr-30 02:31N 46°09' W 001°13'0 0.0
2015-Apr-30 01:31N 46°09' W 001°13'0 0.0
2015-Apr-30 00:31N 46°09' W 001°13'0 0.0
2015-Apr-29 23:31N 46°09' W 001°13'0 0.0
2015-Apr-29 22:33N 46°09' W 001°13'1 1.5
2015-Apr-29 21:33N 46°09' W 001°15'2310.1
2015-Apr-29 19:17N 46°07' W 001°48'  
2015-Apr-27 06:25N 39°08' W 009°51'910.1
2015-Apr-27 05:33N 38°59' W 009°52'1010.1
2015-Apr-27 04:33N 38°49' W 009°52'10 9.8
2015-Apr-27 03:33N 38°39' W 009°51'10 9.8
2015-Apr-27 02:33N 38°30' W 009°48'32 9.3
2015-Apr-26 23:08N 37°59' W 009°40'6 8.8
2015-Apr-26 22:28N 37°53' W 009°38'  
Track history (hours):
 
Tides and Currents Weather Stations Pressure Air Temp Water Temp Dewpoint Dewpoint Depression Visibility Wind Speed Wind Dir Waves Ship Positions

Arklow Spray

Last reported at 2015-May-02 17:27 UTC. Time now 2015-May-03 13:50 UTC.
Position N 43°45' W 006°11'.

Length 90 m; draft 3 m.

Type: Cargo ship. MMSI: 309914000.

Date/timePositionNaut miles runAvg speedWind from/ knotsBaromVisibWave heightAir tempDewpointWater temp
2015-May-02 17:27N 43°45' W 006°11'1011.2
2015-May-02 16:31N 43°44' W 005°57'1111.0
2015-May-02 15:33N 43°43' W 005°42'1110.9
2015-May-02 14:32N 43°41' W 005°27'1211.4
2015-May-02 13:31N 43°40' W 005°11'153 9.5
2015-May-01 21:28N 44°37' W 001°53'2610.7
2015-May-01 19:05N 45°02' W 001°44'6010.4
2015-May-01 13:22N 46°01' W 001°32'9 4.9
2015-May-01 11:32N 46°06' W 001°21'6 6.5
2015-May-01 10:33N 46°10' W 001°13'0 0.4
2015-May-01 09:29N 46°09' W 001°13'0 0.0
2015-May-01 08:23N 46°09' W 001°13'0 0.0
2015-May-01 07:32N 46°09' W 001°13'0 0.0
2015-May-01 06:32N 46°09' W 001°13'0 0.0
2015-May-01 05:32N 46°09' W 001°13'0 0.0
2015-May-01 04:32N 46°09' W 001°13'0 0.0
2015-May-01 03:32N 46°09' W 001°13'0 0.0
2015-May-01 02:31N 46°09' W 001°13'0 0.0
2015-May-01 01:31N 46°09' W 001°13'0 0.0
2015-May-01 00:28N 46°09' W 001°13'0 0.0
2015-Apr-30 23:31N 46°09' W 001°13'0 0.0
2015-Apr-30 22:31N 46°09' W 001°13'0 0.0
2015-Apr-30 21:31N 46°09' W 001°13'0 0.0
2015-Apr-30 20:28N 46°09' W 001°13'0 0.0
2015-Apr-30 19:28N 46°09' W 001°13'0 0.0
2015-Apr-30 18:28N 46°09' W 001°13'0 0.0
2015-Apr-30 17:28N 46°09' W 001°13'0 0.0
2015-Apr-30 16:28N 46°09' W 001°13'0 0.0
2015-Apr-30 15:28N 46°09' W 001°13'0 0.0
2015-Apr-30 14:31N 46°09' W 001°13'0 0.0
2015-Apr-30 13:31N 46°09' W 001°13'0 0.0
2015-Apr-30 12:31N 46°09' W 001°13'0 0.0
2015-Apr-30 11:31N 46°09' W 001°13'0 0.0
2015-Apr-30 10:31N 46°09' W 001°13'0 0.0
2015-Apr-30 09:31N 46°09' W 001°13'0 0.0
2015-Apr-30 08:28N 46°09' W 001°13'0 0.0
2015-Apr-30 07:07N 46°09' W 001°13'0 0.0
2015-Apr-30 06:31N 46°09' W 001°13'0 0.0
2015-Apr-30 05:31N 46°09' W 001°13'0 0.0
2015-Apr-30 04:31N 46°09' W 001°13'0 0.0
2015-Apr-30 03:31N 46°09' W 001°13'0 0.0
2015-Apr-30 02:31N 46°09' W 001°13'0 0.0
2015-Apr-30 01:31N 46°09' W 001°13'0 0.0
2015-Apr-30 00:31N 46°09' W 001°13'0 0.0
2015-Apr-29 23:31N 46°09' W 001°13'0 0.0
2015-Apr-29 22:33N 46°09' W 001°13'1 1.5
2015-Apr-29 21:33N 46°09' W 001°15'2310.1
2015-Apr-29 19:17N 46°07' W 001°48'  
2015-Apr-27 06:25N 39°08' W 009°51'910.1
2015-Apr-27 05:33N 38°59' W 009°52'1010.1
2015-Apr-27 04:33N 38°49' W 009°52'10 9.8
2015-Apr-27 03:33N 38°39' W 009°51'10 9.8
2015-Apr-27 02:33N 38°30' W 009°48'32 9.3
2015-Apr-26 23:08N 37°59' W 009°40'6 8.8
2015-Apr-26 22:28N 37°53' W 009°38'  

Dump ship's entire track history